createdAt,value
2023-11-10T00:02:09.383Z,5.90
2023-11-10T00:04:37.964Z,5.99
2023-11-10T00:07:06.410Z,6.05
2023-11-10T00:09:35.607Z,6.08
2023-11-10T00:12:03.440Z,6.08
2023-11-10T00:14:39.512Z,6.11
2023-11-10T00:17:11.290Z,6.16
2023-11-10T00:19:40.290Z,6.17
2023-11-10T00:22:08.591Z,6.19
2023-11-10T00:24:41.049Z,6.23
2023-11-10T00:27:11.002Z,6.24
2023-11-10T00:29:43.418Z,6.25
2023-11-10T00:32:13.036Z,6.28
2023-11-10T00:34:42.246Z,6.29
2023-11-10T00:37:10.577Z,6.32
2023-11-10T00:39:38.851Z,6.34
2023-11-10T00:42:07.495Z,6.37
2023-11-10T00:44:35.769Z,6.37
2023-11-10T00:47:04.245Z,6.39
2023-11-10T00:49:32.837Z,6.40
2023-11-10T00:52:01.565Z,6.39
2023-11-10T00:54:29.811Z,6.40
2023-11-10T00:56:58.008Z,6.42
2023-11-10T00:59:26.168Z,6.41
2023-11-10T01:01:54.500Z,6.40
2023-11-10T01:04:22.876Z,6.43
2023-11-10T01:06:51.217Z,6.44
2023-11-10T01:09:19.801Z,6.44
2023-11-10T01:11:49.432Z,6.41
2023-11-10T01:14:17.710Z,6.39
2023-11-10T01:16:46.164Z,6.38
2023-11-10T01:19:14.624Z,6.40
2023-11-10T01:21:42.890Z,6.41
2023-11-10T01:24:11.786Z,6.40
2023-11-10T01:26:40.050Z,6.40
2023-11-10T01:29:08.248Z,6.38
2023-11-10T01:31:36.454Z,6.35
2023-11-10T01:34:04.767Z,6.33
2023-11-10T01:36:33.012Z,6.29
2023-11-10T01:39:01.318Z,6.27
2023-11-10T01:41:29.522Z,6.26
2023-11-10T01:43:58.235Z,6.25
2023-11-10T01:46:45.388Z,6.24
2023-11-10T01:49:16.583Z,6.24
2023-11-10T01:51:46.530Z,6.22
2023-11-10T01:54:19.859Z,6.22
2023-11-10T01:56:49.114Z,6.29
2023-11-10T01:59:17.713Z,6.36
2023-11-10T02:01:49.284Z,6.37
2023-11-10T02:04:17.970Z,6.35
2023-11-10T02:06:47.773Z,6.37
2023-11-10T02:09:17.352Z,6.40
2023-11-10T02:11:45.731Z,6.43
2023-11-10T02:14:14.953Z,6.46
2023-11-10T02:16:42.987Z,6.44
2023-11-10T02:19:16.721Z,6.41
2023-11-10T02:21:46.148Z,6.39
2023-11-10T02:24:16.549Z,6.41
2023-11-10T02:26:46.259Z,6.46
2023-11-10T02:29:16.723Z,6.47
2023-11-10T02:31:45.443Z,6.51
2023-11-10T02:34:13.855Z,6.52
2023-11-10T02:36:43.081Z,6.56
2023-11-10T02:39:12.068Z,6.60
2023-11-10T02:41:40.174Z,6.62
2023-11-10T02:44:08.385Z,6.61
2023-11-10T02:46:36.633Z,6.60
2023-11-10T02:49:05.038Z,6.58
2023-11-10T02:51:33.311Z,6.56
2023-11-10T02:54:01.566Z,6.55
2023-11-10T02:56:29.757Z,6.56
2023-11-10T02:58:58.400Z,6.58
2023-11-10T03:01:27.742Z,6.61
2023-11-10T03:03:56.169Z,6.62
2023-11-10T03:06:24.525Z,6.63
2023-11-10T03:08:55.553Z,6.63
2023-11-10T03:11:25.378Z,6.67
2023-11-10T03:13:56.788Z,6.72
2023-11-10T03:16:25.129Z,6.74
2023-11-10T03:18:54.025Z,6.78
2023-11-10T03:21:24.386Z,6.80
2023-11-10T03:23:52.774Z,6.82
2023-11-10T03:26:21.115Z,6.83
2023-11-10T03:28:49.313Z,6.86
2023-11-10T03:31:17.775Z,6.85
2023-11-10T03:33:46.273Z,6.86
2023-11-10T03:36:14.924Z,6.86
2023-11-10T03:38:43.225Z,6.87
2023-11-10T03:41:11.620Z,6.87
2023-11-10T03:43:39.797Z,6.88
2023-11-10T03:46:09.964Z,6.88
2023-11-10T03:48:38.233Z,6.90
2023-11-10T03:51:13.963Z,6.89
2023-11-10T03:53:43.322Z,6.89
2023-11-10T03:56:11.587Z,6.91
2023-11-10T03:58:39.776Z,6.91
2023-11-10T04:01:13.069Z,6.91
2023-11-10T04:03:43.111Z,6.92
2023-11-10T04:06:12.254Z,6.93
2023-11-10T04:08:40.183Z,6.92
2023-11-10T04:11:08.347Z,6.91
2023-11-10T04:13:36.644Z,6.92
2023-11-10T04:16:04.997Z,6.92
2023-11-10T04:18:33.312Z,6.93
2023-11-10T04:21:01.598Z,6.96
2023-11-10T04:23:30.350Z,6.98
2023-11-10T04:25:58.524Z,6.96
2023-11-10T04:28:27.464Z,6.96
2023-11-10T04:30:55.778Z,6.92
2023-11-10T04:33:24.330Z,6.92
2023-11-10T04:35:52.601Z,6.93
2023-11-10T04:38:20.809Z,6.96
2023-11-10T04:40:50.543Z,6.95
2023-11-10T04:43:19.511Z,6.96
2023-11-10T04:45:47.750Z,6.97
2023-11-10T04:48:16.023Z,6.97
2023-11-10T04:50:44.222Z,6.97
2023-11-10T04:53:14.808Z,6.99
2023-11-10T04:55:43.382Z,6.97
2023-11-10T04:58:11.567Z,6.97
2023-11-10T05:00:39.818Z,6.98
2023-11-10T05:03:09.687Z,6.99
2023-11-10T05:05:38.032Z,6.99
2023-11-10T05:08:06.862Z,6.99
2023-11-10T05:10:35.514Z,6.98
2023-11-10T05:13:04.121Z,6.97
2023-11-10T05:15:32.406Z,6.95
2023-11-10T05:18:02.441Z,6.93
2023-11-10T05:20:33.226Z,6.93
2023-11-10T05:23:01.615Z,6.92
2023-11-10T05:25:30.347Z,6.91
2023-11-10T05:28:01.610Z,6.91
2023-11-10T05:30:31.524Z,6.89
2023-11-10T05:32:59.845Z,6.89
2023-11-10T05:35:28.368Z,6.88
2023-11-10T05:37:56.848Z,6.86
2023-11-10T05:40:25.677Z,6.83
2023-11-10T05:42:54.617Z,6.81
2023-11-10T05:45:22.914Z,6.76
2023-11-10T05:47:51.150Z,6.67
2023-11-10T05:50:19.441Z,6.64
2023-11-10T05:52:47.609Z,6.64
2023-11-10T05:55:15.780Z,6.61
2023-11-10T05:57:44.048Z,6.55
2023-11-10T06:00:12.768Z,6.48
2023-11-10T06:02:41.238Z,6.37
2023-11-10T06:05:12.111Z,6.26
2023-11-10T06:07:40.399Z,6.15
2023-11-10T06:10:11.550Z,6.09
2023-11-10T06:12:39.871Z,6.01
2023-11-10T06:15:08.839Z,5.95
2023-11-10T06:17:37.078Z,5.91
2023-11-10T06:20:05.592Z,5.89
2023-11-10T06:22:35.334Z,5.88
2023-11-10T06:25:03.624Z,5.87
2023-11-10T06:27:31.987Z,5.86
2023-11-10T06:30:01.264Z,5.87
2023-11-10T06:32:29.243Z,5.91
2023-11-10T06:34:57.544Z,5.95
2023-11-10T06:37:27.160Z,5.98
2023-11-10T06:39:55.423Z,6.04
2023-11-10T06:42:25.016Z,6.06
2023-11-10T06:44:53.237Z,6.10
2023-11-10T06:47:21.438Z,6.14
2023-11-10T06:49:49.719Z,6.20
2023-11-10T06:52:17.900Z,6.27
2023-11-10T06:54:46.104Z,6.33
2023-11-10T06:57:14.328Z,6.37
2023-11-10T06:59:42.801Z,6.39
2023-11-10T07:02:13.978Z,6.43
2023-11-10T07:04:43.646Z,6.44
2023-11-10T07:07:13.002Z,6.46
2023-11-10T07:09:41.215Z,6.51
2023-11-10T07:12:09.989Z,6.54
2023-11-10T07:14:38.782Z,6.56
2023-11-10T07:17:07.547Z,6.60
2023-11-10T07:19:35.745Z,6.61
2023-11-10T07:22:05.311Z,6.60
2023-11-10T07:24:33.518Z,6.57
2023-11-10T07:27:01.733Z,6.59
2023-11-10T07:29:30.012Z,6.61
2023-11-10T07:31:58.232Z,6.57
2023-11-10T07:34:26.471Z,6.58
2023-11-10T07:36:56.150Z,6.60
2023-11-10T07:39:24.365Z,6.58
2023-11-10T07:41:52.558Z,6.56
2023-11-10T07:44:20.737Z,6.57
2023-11-10T07:46:50.320Z,6.57
2023-11-10T07:49:20.130Z,6.58
2023-11-10T07:51:48.300Z,6.62
2023-11-10T07:54:18.834Z,6.66
2023-11-10T07:56:47.135Z,6.68
2023-11-10T07:59:15.420Z,6.69
2023-11-10T08:01:44.834Z,6.69
2023-11-10T08:04:13.142Z,6.73
2023-11-10T08:06:41.471Z,6.76
2023-11-10T08:09:13.232Z,6.76
2023-11-10T08:11:50.091Z,6.78
2023-11-10T08:14:24.135Z,6.78
2023-11-10T08:16:52.382Z,6.80
2023-11-10T08:19:20.656Z,6.84
2023-11-10T08:21:50.147Z,6.82
2023-11-10T08:24:18.380Z,6.84
2023-11-10T08:26:46.545Z,6.86
2023-11-10T08:29:14.811Z,6.89
2023-11-10T08:31:43.070Z,6.93
2023-11-10T08:34:11.652Z,6.96
2023-11-10T08:36:41.488Z,7.02
2023-11-10T08:39:09.720Z,7.08
2023-11-10T08:41:38.217Z,7.11
2023-11-10T08:44:07.645Z,7.13
2023-11-10T08:46:35.939Z,7.15
2023-11-10T08:49:04.822Z,7.23
2023-11-10T08:51:33.309Z,7.33
2023-11-10T08:54:01.504Z,7.37
2023-11-10T08:56:29.837Z,7.37
2023-11-10T08:58:58.693Z,7.39
2023-11-10T09:01:28.004Z,7.40
2023-11-10T09:03:57.959Z,7.39
2023-11-10T09:06:30.854Z,7.45
2023-11-10T09:08:59.122Z,7.50
2023-11-10T09:11:28.318Z,7.53
2023-11-10T09:13:56.486Z,7.56
2023-11-10T09:16:26.532Z,7.52
2023-11-10T09:18:54.883Z,7.51
2023-11-10T09:21:23.272Z,7.47
2023-11-10T09:23:51.524Z,7.45
2023-11-10T09:26:19.718Z,7.43
2023-11-10T09:28:49.949Z,7.40
2023-11-10T09:31:18.351Z,7.38
2023-11-10T09:33:46.612Z,7.40
2023-11-10T09:36:14.869Z,7.42
2023-11-10T09:38:43.087Z,7.41
2023-11-10T09:41:18.442Z,7.39
2023-11-10T09:43:49.586Z,7.39
2023-11-10T09:46:20.713Z,7.41
2023-11-10T09:48:50.852Z,7.46
2023-11-10T09:51:21.329Z,7.56
2023-11-10T09:53:51.068Z,7.58
2023-11-10T09:56:21.611Z,7.61
2023-11-10T09:58:52.231Z,7.63
2023-11-10T10:01:20.726Z,7.69
2023-11-10T10:03:49.987Z,7.75
2023-11-10T10:06:19.367Z,7.79
2023-11-10T10:08:47.585Z,7.73
2023-11-10T10:11:16.276Z,7.73
2023-11-10T10:13:44.857Z,7.78
2023-11-10T10:16:14.206Z,7.82
2023-11-10T10:18:43.545Z,7.86
2023-11-10T10:21:12.698Z,7.87
2023-11-10T10:23:40.594Z,7.86
2023-11-10T10:26:13.991Z,7.84
2023-11-10T10:28:42.380Z,7.86
2023-11-10T10:31:12.596Z,7.88
2023-11-10T10:33:41.014Z,7.92
2023-11-10T10:36:09.673Z,7.98
2023-11-10T10:38:40.540Z,8.05
2023-11-10T10:41:12.469Z,8.03
2023-11-10T10:43:53.814Z,8.00
2023-11-10T10:46:30.087Z,7.90
2023-11-10T10:48:59.022Z,7.86
2023-11-10T10:51:29.593Z,7.83
2023-11-10T10:53:58.516Z,7.81
2023-11-10T10:56:38.529Z,7.77
2023-11-10T10:59:12.654Z,7.69
2023-11-10T11:01:42.912Z,7.65
2023-11-10T11:04:30.388Z,7.59
2023-11-10T11:07:23.222Z,7.54
2023-11-10T11:09:51.365Z,7.49
2023-11-10T11:12:43.813Z,7.47
2023-11-10T11:15:33.809Z,7.48
2023-11-10T11:18:16.534Z,7.47
2023-11-10T11:20:45.534Z,7.49
2023-11-10T11:23:14.891Z,7.53
2023-11-10T11:25:44.140Z,7.57
2023-11-10T11:28:12.356Z,7.65
2023-11-10T11:30:42.547Z,7.70
2023-11-10T11:33:11.492Z,7.72
2023-11-10T11:35:49.246Z,7.79
2023-11-10T11:38:27.899Z,7.85
2023-11-10T11:40:59.665Z,7.89
2023-11-10T11:43:28.262Z,7.96
2023-11-10T11:45:57.612Z,8.01
2023-11-10T11:48:25.877Z,8.04
2023-11-10T11:50:57.357Z,8.09
2023-11-10T11:53:25.589Z,8.16
2023-11-10T11:55:56.725Z,8.28
2023-11-10T11:58:27.004Z,8.32
2023-11-10T12:00:55.322Z,8.30
2023-11-10T12:03:23.877Z,8.31
2023-11-10T12:05:52.409Z,8.27
2023-11-10T12:08:22.856Z,8.19
2023-11-10T12:10:51.174Z,8.16
2023-11-10T12:13:20.993Z,8.16
2023-11-10T12:15:49.568Z,8.13
2023-11-10T12:18:19.773Z,8.13
2023-11-10T12:20:48.220Z,8.13
2023-11-10T12:23:16.438Z,8.11
2023-11-10T12:25:46.586Z,8.05
2023-11-10T12:28:15.150Z,8.00
2023-11-10T12:30:43.967Z,7.99
2023-11-10T12:33:12.334Z,7.97
2023-11-10T12:35:41.076Z,7.96
2023-11-10T12:38:10.373Z,7.95
2023-11-10T12:40:38.913Z,7.95
2023-11-10T12:43:09.297Z,7.95
2023-11-10T12:45:38.536Z,7.86
2023-11-10T12:48:16.055Z,7.75
2023-11-10T12:50:48.897Z,7.69
2023-11-10T12:53:20.125Z,7.66
2023-11-10T12:55:48.484Z,7.62
2023-11-10T12:58:16.661Z,7.60
2023-11-10T13:00:45.038Z,7.57
2023-11-10T13:03:16.303Z,7.55
2023-11-10T13:05:44.669Z,7.54
2023-11-10T13:08:16.615Z,7.54
2023-11-10T13:10:45.675Z,7.56
2023-11-10T13:13:13.524Z,7.56
2023-11-10T13:15:41.719Z,7.57
2023-11-10T13:18:09.979Z,7.55
2023-11-10T13:20:38.443Z,7.56
2023-11-10T13:23:08.144Z,7.54
2023-11-10T13:25:37.664Z,7.58
2023-11-10T13:28:08.713Z,7.58
2023-11-10T13:30:37.110Z,7.56
2023-11-10T13:33:05.969Z,7.55
2023-11-10T13:35:34.731Z,7.56
2023-11-10T13:38:03.000Z,7.67
2023-11-10T13:40:31.259Z,7.66
2023-11-10T13:42:59.523Z,7.66
2023-11-10T13:45:27.928Z,7.68
2023-11-10T13:47:56.187Z,7.72
2023-11-10T13:50:25.160Z,7.74
2023-11-10T13:52:54.641Z,7.81
2023-11-10T13:55:23.210Z,7.84
2023-11-10T13:57:53.319Z,7.90
2023-11-10T14:00:22.923Z,8.00
2023-11-10T14:02:51.219Z,8.05
2023-11-10T14:05:19.424Z,8.11
2023-11-10T14:07:47.745Z,8.15
2023-11-10T14:10:17.080Z,8.16
2023-11-10T14:12:49.430Z,8.12
2023-11-10T14:15:19.133Z,8.07
2023-11-10T14:17:48.647Z,8.03
2023-11-10T14:20:16.872Z,7.99
2023-11-10T14:22:45.183Z,7.99
2023-11-10T14:25:13.566Z,7.98
2023-11-10T14:27:41.932Z,7.98
2023-11-10T14:30:11.281Z,7.96
2023-11-10T14:32:39.608Z,7.93
2023-11-10T14:35:11.731Z,7.90
2023-11-10T14:37:43.561Z,7.84
2023-11-10T14:40:18.908Z,7.80
2023-11-10T14:42:49.032Z,7.79
2023-11-10T14:45:17.922Z,7.77
2023-11-10T14:47:46.197Z,7.73
2023-11-10T14:50:15.134Z,7.74
2023-11-10T14:52:46.462Z,7.72
2023-11-10T14:55:14.761Z,7.71
2023-11-10T14:57:42.968Z,7.66
2023-11-10T15:00:14.418Z,7.65
2023-11-10T15:02:44.065Z,7.66
2023-11-10T15:05:15.968Z,7.65
2023-11-10T15:07:44.427Z,7.62
2023-11-10T15:10:12.656Z,7.59
2023-11-10T15:12:40.946Z,7.56
2023-11-10T15:15:10.906Z,7.55
2023-11-10T15:17:39.117Z,7.52
2023-11-10T15:20:09.572Z,7.49
2023-11-10T15:22:43.391Z,7.49
2023-11-10T15:25:11.620Z,7.46
2023-11-10T15:27:39.891Z,7.46
2023-11-10T15:30:09.895Z,7.45
2023-11-10T15:32:38.130Z,7.45
2023-11-10T15:35:07.638Z,7.44
2023-11-10T15:37:42.727Z,7.44
2023-11-10T15:40:15.438Z,7.43
2023-11-10T15:42:43.878Z,7.44
2023-11-10T15:45:13.138Z,7.43
2023-11-10T15:47:41.470Z,7.41
2023-11-10T15:50:10.402Z,7.39
2023-11-10T15:52:38.639Z,7.37
2023-11-10T15:55:09.852Z,7.35
2023-11-10T15:57:39.274Z,7.33
2023-11-10T16:00:11.642Z,7.34
2023-11-10T16:02:40.090Z,7.33
2023-11-10T16:05:09.209Z,7.33
2023-11-10T16:07:38.807Z,7.31
2023-11-10T16:10:12.779Z,7.30
2023-11-10T16:12:41.404Z,7.30
2023-11-10T16:15:10.302Z,7.29
2023-11-10T16:17:38.551Z,7.28
2023-11-10T16:20:07.516Z,7.29
2023-11-10T16:22:35.734Z,7.29
2023-11-10T16:25:03.990Z,7.29
2023-11-10T16:27:32.191Z,7.30
2023-11-10T16:30:00.364Z,7.30
2023-11-10T16:32:31.299Z,7.31
2023-11-10T16:35:00.520Z,7.31
2023-11-10T16:37:29.245Z,7.32
2023-11-10T16:39:57.560Z,7.31
2023-11-10T16:42:28.887Z,7.33
2023-11-10T16:44:59.290Z,7.32
2023-11-10T16:47:27.582Z,7.33
2023-11-10T16:49:55.764Z,7.34
2023-11-10T16:52:24.012Z,7.35
2023-11-10T16:54:52.227Z,7.35
2023-11-10T16:57:20.410Z,7.34
2023-11-10T16:59:48.657Z,7.34
2023-11-10T17:02:16.981Z,7.36
2023-11-10T17:04:45.361Z,7.37
2023-11-10T17:07:15.324Z,7.37
2023-11-10T17:09:43.890Z,7.39
2023-11-10T17:12:12.113Z,7.39
2023-11-10T17:14:40.281Z,7.39
2023-11-10T17:17:09.043Z,7.39
2023-11-10T17:19:37.784Z,7.39
2023-11-10T17:22:07.206Z,7.37
2023-11-10T17:24:35.526Z,7.37
2023-11-10T17:27:03.793Z,7.35
2023-11-10T17:29:32.977Z,7.34
2023-11-10T17:32:04.852Z,7.34
2023-11-10T17:34:33.497Z,7.31
2023-11-10T17:37:01.766Z,7.31
2023-11-10T17:39:32.074Z,7.29
2023-11-10T17:42:02.211Z,7.30
2023-11-10T17:44:30.435Z,7.25
2023-11-10T17:46:58.684Z,7.25
2023-11-10T17:49:27.486Z,7.19
2023-11-10T17:51:55.729Z,7.15
2023-11-10T17:54:23.913Z,7.13
2023-11-10T17:56:52.620Z,7.08
2023-11-10T17:59:20.826Z,7.08
2023-11-10T18:01:49.057Z,7.04
2023-11-10T18:04:17.418Z,7.03
2023-11-10T18:06:45.710Z,7.01
2023-11-10T18:09:15.853Z,6.98
2023-11-10T18:11:44.543Z,6.99
2023-11-10T18:14:12.797Z,6.97
2023-11-10T18:16:41.032Z,6.98
2023-11-10T18:19:09.279Z,6.93
2023-11-10T18:21:37.659Z,6.91
2023-11-10T18:24:06.060Z,6.89
2023-11-10T18:26:34.767Z,6.89
2023-11-10T18:29:03.117Z,6.90
2023-11-10T18:31:32.089Z,6.94
2023-11-10T18:34:00.342Z,6.95
2023-11-10T18:36:28.841Z,6.97
2023-11-10T18:38:57.084Z,6.97
2023-11-10T18:41:25.317Z,6.98
2023-11-10T18:43:53.572Z,6.98
2023-11-10T18:46:21.849Z,6.93
2023-11-10T18:48:50.171Z,6.90
2023-11-10T18:51:18.491Z,6.88
2023-11-10T18:53:46.700Z,6.88
2023-11-10T18:56:14.953Z,6.87
2023-11-10T18:58:43.134Z,6.84
2023-11-10T19:01:11.561Z,6.81
2023-11-10T19:03:39.905Z,6.79
2023-11-10T19:06:08.322Z,6.75
2023-11-10T19:08:39.117Z,6.73
2023-11-10T19:11:07.443Z,6.73
2023-11-10T19:13:35.637Z,6.72
2023-11-10T19:16:03.898Z,6.71
2023-11-10T19:18:32.193Z,6.73
2023-11-10T19:21:00.428Z,6.74
2023-11-10T19:23:28.984Z,6.75
2023-11-10T19:25:57.163Z,6.80
2023-11-10T19:28:25.431Z,6.81
2023-11-10T19:30:53.729Z,6.81
2023-11-10T19:33:22.083Z,6.81
2023-11-10T19:35:50.338Z,6.80
2023-11-10T19:38:18.605Z,6.80
2023-11-10T19:40:46.868Z,6.76
2023-11-10T19:43:15.131Z,6.74
2023-11-10T19:45:44.773Z,6.74
2023-11-10T19:48:13.153Z,6.73
2023-11-10T19:50:41.384Z,6.70
2023-11-10T19:53:09.641Z,6.71
2023-11-10T19:55:40.101Z,6.71
2023-11-10T20:03:11.502Z,6.64
2023-11-10T20:05:39.755Z,6.63
2023-11-10T20:08:08.310Z,6.62
2023-11-10T20:10:36.484Z,6.60
2023-11-10T20:13:05.135Z,6.56
2023-11-10T20:15:33.388Z,6.58
2023-11-10T20:18:01.709Z,6.56
2023-11-10T20:20:30.318Z,6.53
2023-11-10T20:22:58.543Z,6.52
2023-11-10T20:25:27.747Z,6.51
2023-11-10T20:27:56.470Z,6.47
2023-11-10T20:30:25.314Z,6.47
2023-11-10T20:32:53.572Z,6.46
2023-11-10T20:35:21.786Z,6.40
2023-11-10T20:37:50.646Z,6.38
2023-11-10T20:40:19.660Z,6.35
2023-11-10T20:42:48.805Z,6.29
2023-11-10T20:45:16.739Z,6.30
2023-11-10T20:47:45.276Z,6.30
2023-11-10T20:50:13.509Z,6.30
2023-11-10T20:52:42.094Z,6.26
2023-11-10T20:55:10.461Z,6.30
2023-11-10T20:57:44.735Z,6.30
2023-11-10T21:00:14.658Z,6.31
2023-11-10T21:02:43.051Z,6.29
2023-11-10T21:05:11.735Z,6.31
2023-11-10T21:07:40.892Z,6.32
2023-11-10T21:10:09.041Z,6.35
2023-11-10T21:12:42.213Z,6.36
2023-11-10T21:15:12.442Z,6.36
2023-11-10T21:17:40.960Z,6.33
2023-11-10T21:20:11.374Z,6.36
2023-11-10T21:22:39.699Z,6.36
2023-11-10T21:25:08.309Z,6.37
2023-11-10T21:27:37.655Z,6.35
2023-11-10T21:30:07.576Z,6.34
2023-11-10T21:32:37.826Z,6.26
2023-11-10T21:35:06.827Z,6.24
2023-11-10T21:37:35.083Z,6.20
2023-11-10T21:40:03.358Z,6.17
2023-11-10T21:42:31.690Z,6.14
2023-11-10T21:45:00.569Z,6.12
2023-11-10T21:47:32.791Z,6.08
2023-11-10T21:50:01.210Z,6.09
2023-11-10T21:52:31.040Z,6.06
2023-11-10T21:54:59.689Z,6.03
2023-11-10T21:57:28.439Z,6.02
2023-11-10T21:59:56.663Z,6.04
2023-11-10T22:02:24.860Z,6.00
2023-11-10T22:04:53.069Z,6.01
2023-11-10T22:07:21.919Z,6.01
2023-11-10T22:09:50.082Z,6.00
2023-11-10T22:12:18.418Z,6.05
2023-11-10T22:14:46.664Z,6.11
2023-11-10T22:17:14.905Z,6.14
2023-11-10T22:19:43.103Z,6.19
2023-11-10T22:22:11.547Z,6.13
2023-11-10T22:24:39.820Z,6.07
2023-11-10T22:27:08.141Z,6.07
2023-11-10T22:29:36.409Z,6.00
2023-11-10T22:32:04.982Z,5.94
2023-11-10T22:34:33.270Z,5.88
2023-11-10T22:37:04.356Z,5.85
2023-11-10T22:39:32.681Z,5.85
2023-11-10T22:42:01.063Z,5.82
2023-11-10T22:44:29.278Z,5.76
2023-11-10T22:46:57.538Z,5.68
2023-11-10T22:49:25.764Z,5.64
2023-11-10T22:51:54.643Z,5.60
2023-11-10T22:54:22.956Z,5.59
2023-11-10T22:56:51.641Z,5.52
2023-11-10T22:59:20.988Z,5.46
2023-11-10T23:01:50.940Z,5.41
2023-11-10T23:04:21.338Z,5.37
2023-11-10T23:06:49.692Z,5.32
2023-11-10T23:09:17.969Z,5.31
2023-11-10T23:11:46.156Z,5.30
2023-11-10T23:14:16.057Z,5.25
2023-11-10T23:16:44.279Z,5.21
2023-11-10T23:19:13.240Z,5.17
2023-11-10T23:21:41.651Z,5.17
2023-11-10T23:24:10.063Z,5.14
2023-11-10T23:26:38.260Z,5.10
2023-11-10T23:29:07.598Z,5.05
2023-11-10T23:31:35.918Z,4.99
2023-11-10T23:34:04.407Z,4.96
2023-11-10T23:36:33.623Z,4.90
2023-11-10T23:39:01.517Z,4.91
2023-11-10T23:41:30.638Z,4.94
2023-11-10T23:43:58.855Z,4.93
2023-11-10T23:46:27.107Z,4.92
2023-11-10T23:48:56.838Z,4.87
2023-11-10T23:51:26.300Z,4.84
2023-11-10T23:53:55.402Z,4.80
2023-11-10T23:56:23.584Z,4.76
2023-11-10T23:58:51.790Z,4.71
